Avondale Estates, Georgia
Current Conditions -  °F | °C
As of 9:53 PM on Saturday 20 Dec 2014 (Local Time) from KPDK Reporting Station
Haze Haze  
Wind Chill:   Ceiling: 1500
Heat Index:   Visibility: 4mi
Dew Point:   Wind: 3mph
Humidity: 86%   Direction: 70°ENE
Pressure: 30.2"   Gusts: NA
Location:  33.77°N, 84.27°W
Report Text: KPDK 210253Z 07003KT 4SM BR OVC015 08/06 A3020 RMK AO2 SLP233 T00830061 51006
Loading
Personal Weather Stations






























Interactive Weather Map New forecast layout! Learn more

10-Day Weather Forecast

Advertisements
Track Severe Weather on mobile